sensor_id;sensor_type;location;lat;lon;timestamp;pressure;altitude;pressure_sealevel;temperature;humidity
48800;BME280;34611;47.964;7.982;2023-05-03T00:03:59;97450.84;;;12.21;66.38
48800;BME280;34611;47.964;7.982;2023-05-03T00:10:59;97453.47;;;12.21;66.38
48800;BME280;34611;47.964;7.982;2023-05-03T00:18:00;97454.31;;;12.21;66.70
48800;BME280;34611;47.964;7.982;2023-05-03T00:25:01;97449.91;;;12.22;66.59
48800;BME280;34611;47.964;7.982;2023-05-03T00:32:01;97449.91;;;12.22;66.50
48800;BME280;34611;47.964;7.982;2023-05-03T00:39:01;97436.91;;;12.22;66.53
48800;BME280;34611;47.964;7.982;2023-05-03T00:46:02;97436.91;;;12.22;66.35
48800;BME280;34611;47.964;7.982;2023-05-03T00:53:07;97440.44;;;12.21;66.52
48800;BME280;34611;47.964;7.982;2023-05-03T01:00:08;97443.03;;;12.21;66.49
48800;BME280;34611;47.964;7.982;2023-05-03T01:14:25;97426.59;;;12.20;66.59
48800;BME280;34611;47.964;7.982;2023-05-03T01:21:27;97423.84;;;12.22;66.35
48800;BME280;34611;47.964;7.982;2023-05-03T01:28:28;97411.75;;;12.21;66.51
48800;BME280;34611;47.964;7.982;2023-05-03T01:35:34;97424.78;;;12.21;66.47
48800;BME280;34611;47.964;7.982;2023-05-03T01:42:36;97413.44;;;12.22;66.39
48800;BME280;34611;47.964;7.982;2023-05-03T01:49:37;97410.94;;;12.20;66.40
48800;BME280;34611;47.964;7.982;2023-05-03T01:56:37;97415.22;;;12.21;66.58
48800;BME280;34611;47.964;7.982;2023-05-03T02:03:37;97404.78;;;12.21;66.67
48800;BME280;34611;47.964;7.982;2023-05-03T02:10:38;97410.00;;;12.21;66.46
48800;BME280;34611;47.964;7.982;2023-05-03T02:17:38;97410.13;;;12.20;66.47
48800;BME280;34611;47.964;7.982;2023-05-03T02:32:43;97394.47;;;12.20;66.58
48800;BME280;34611;47.964;7.982;2023-05-03T02:39:43;97386.56;;;12.21;66.49
48800;BME280;34611;47.964;7.982;2023-05-03T02:46:46;97384.88;;;12.20;66.42
48800;BME280;34611;47.964;7.982;2023-05-03T02:53:50;97384.06;;;12.20;66.50
48800;BME280;34611;47.964;7.982;2023-05-03T03:00:50;97385.69;;;12.21;66.49
48800;BME280;34611;47.964;7.982;2023-05-03T03:07:52;97386.66;;;12.20;66.62
48800;BME280;34611;47.964;7.982;2023-05-03T03:14:53;97386.56;;;12.21;66.42
48800;BME280;34611;47.964;7.982;2023-05-03T03:21:54;97384.88;;;12.20;66.22
48800;BME280;34611;47.964;7.982;2023-05-03T03:28:54;97384.88;;;12.20;66.31
48800;BME280;34611;47.964;7.982;2023-05-03T03:35:54;97393.50;;;12.21;66.60
48800;BME280;34611;47.964;7.982;2023-05-03T03:42:59;97385.84;;;12.19;66.60
48800;BME280;34611;47.964;7.982;2023-05-03T03:50:00;97397.91;;;12.20;66.45
48800;BME280;34611;47.964;7.982;2023-05-03T03:57:05;97397.09;;;12.20;66.39
48800;BME280;34611;47.964;7.982;2023-05-03T04:04:06;97392.69;;;12.20;66.49
48800;BME280;34611;47.964;7.982;2023-05-03T04:11:10;97399.69;;;12.20;66.48
48800;BME280;34611;47.964;7.982;2023-05-03T04:18:20;97399.69;;;12.20;66.56
48800;BME280;34611;47.964;7.982;2023-05-03T04:25:21;97396.28;;;12.19;66.49
48800;BME280;34611;47.964;7.982;2023-05-03T04:32:30;97402.31;;;12.20;66.63
48800;BME280;34611;47.964;7.982;2023-05-03T04:39:41;97401.34;;;12.21;66.37
48800;BME280;34611;47.964;7.982;2023-05-03T04:46:41;97392.81;;;12.19;66.46
48800;BME280;34611;47.964;7.982;2023-05-03T04:53:42;97400.50;;;12.20;66.58
48800;BME280;34611;47.964;7.982;2023-05-03T05:00:47;97402.31;;;12.20;66.50
48800;BME280;34611;47.964;7.982;2023-05-03T05:07:55;97403.94;;;12.21;66.63
48800;BME280;34611;47.964;7.982;2023-05-03T05:14:56;97403.94;;;12.21;66.33
48800;BME280;34611;47.964;7.982;2023-05-03T05:21:56;97409.16;;;12.21;66.62
48800;BME280;34611;47.964;7.982;2023-05-03T05:29:02;97418.75;;;12.20;66.51
48800;BME280;34611;47.964;7.982;2023-05-03T05:36:03;97422.19;;;12.21;66.49
48800;BME280;34611;47.964;7.982;2023-05-03T05:43:05;97419.72;;;12.19;66.41
48800;BME280;34611;47.964;7.982;2023-05-03T05:50:09;97421.38;;;12.20;66.60
48800;BME280;34611;47.964;7.982;2023-05-03T05:57:09;97410.13;;;12.20;66.50
48800;BME280;34611;47.964;7.982;2023-05-03T06:04:12;97406.69;;;12.19;66.53
48800;BME280;34611;47.964;7.982;2023-05-03T06:11:13;97404.09;;;12.19;66.47
48800;BME280;34611;47.964;7.982;2023-05-03T06:18:14;97399.69;;;12.20;66.53
48800;BME280;34611;47.964;7.982;2023-05-03T06:25:15;97398.03;;;12.19;66.62
48800;BME280;34611;47.964;7.982;2023-05-03T06:32:17;97395.31;;;12.20;66.39
48800;BME280;34611;47.964;7.982;2023-05-03T06:39:18;97398.88;;;12.19;66.47
48800;BME280;34611;47.964;7.982;2023-05-03T06:46:19;97397.91;;;12.20;66.41
48800;BME280;34611;47.964;7.982;2023-05-03T06:53:19;97391.88;;;12.20;66.73
48800;BME280;34611;47.964;7.982;2023-05-03T07:00:19;97382.38;;;12.19;66.56
48800;BME280;34611;47.964;7.982;2023-05-03T07:07:22;97379.66;;;12.20;66.38
48800;BME280;34611;47.964;7.982;2023-05-03T07:14:22;97361.53;;;12.19;66.39
48800;BME280;34611;47.964;7.982;2023-05-03T07:21:23;97347.56;;;12.20;66.64
48800;BME280;34611;47.964;7.982;2023-05-03T07:28:25;97344.97;;;12.20;66.38
48800;BME280;34611;47.964;7.982;2023-05-03T07:35:26;97337.16;;;12.20;66.52
48800;BME280;34611;47.964;7.982;2023-05-03T07:42:27;97341.53;;;12.19;66.62
48800;BME280;34611;47.964;7.982;2023-05-03T07:49:27;97330.25;;;12.19;66.51
48800;BME280;34611;47.964;7.982;2023-05-03T07:56:28;97333.72;;;12.19;66.60
48800;BME280;34611;47.964;7.982;2023-05-03T08:03:28;97331.94;;;12.20;66.50
48800;BME280;34611;47.964;7.982;2023-05-03T08:10:28;97337.16;;;12.20;66.54
48800;BME280;34611;47.964;7.982;2023-05-03T08:17:29;97347.56;;;12.20;66.46
48800;BME280;34611;47.964;7.982;2023-05-03T08:24:29;97344.97;;;12.20;66.50
48800;BME280;34611;47.964;7.982;2023-05-03T08:31:29;97344.16;;;12.19;66.53
48800;BME280;34611;47.964;7.982;2023-05-03T08:38:30;97336.31;;;12.19;66.49
48800;BME280;34611;47.964;7.982;2023-05-03T08:45:31;97335.47;;;12.19;66.60
48800;BME280;34611;47.964;7.982;2023-05-03T08:52:32;97343.19;;;12.20;66.59
48800;BME280;34611;47.964;7.982;2023-05-03T08:59:33;97344.16;;;12.19;66.60
48800;BME280;34611;47.964;7.982;2023-05-03T09:06:33;97347.56;;;12.20;66.63
48800;BME280;34611;47.964;7.982;2023-05-03T09:13:34;97349.34;;;12.19;66.43
48800;BME280;34611;47.964;7.982;2023-05-03T09:20:34;97345.91;;;12.19;66.50
48800;BME280;34611;47.964;7.982;2023-05-03T09:27:35;97354.56;;;12.19;66.52
48800;BME280;34611;47.964;7.982;2023-05-03T09:34:36;97351.97;;;12.19;66.63
48800;BME280;34611;47.964;7.982;2023-05-03T09:41:36;97342.34;;;12.20;66.50
48800;BME280;34611;47.964;7.982;2023-05-03T09:48:37;97333.56;;;12.21;66.56
48800;BME280;34611;47.964;7.982;2023-05-03T09:55:38;97339.75;;;12.20;66.40
48800;BME280;34611;47.964;7.982;2023-05-03T10:02:39;97325.06;;;12.19;66.51
48800;BME280;34611;47.964;7.982;2023-05-03T10:09:42;97318.09;;;12.19;66.58
48800;BME280;34611;47.964;7.982;2023-05-03T10:16:43;97330.16;;;12.20;66.53
48800;BME280;34611;47.964;7.982;2023-05-03T10:31:04;97330.97;;;12.21;66.45
48800;BME280;34611;47.964;7.982;2023-05-03T10:38:19;97306.69;;;12.20;66.47
48800;BME280;34611;47.964;7.982;2023-05-03T10:45:21;97304.19;;;12.19;66.68
48800;BME280;34611;47.964;7.982;2023-05-03T10:59:45;97289.41;;;12.19;66.53
48800;BME280;34611;47.964;7.982;2023-05-03T11:06:45;97282.41;;;12.20;66.48
48800;BME280;34611;47.964;7.982;2023-05-03T11:13:51;97268.56;;;12.19;66.42
48800;BME280;34611;47.964;7.982;2023-05-03T11:20:52;97264.16;;;12.20;66.69
48800;BME280;34611;47.964;7.982;2023-05-03T11:27:53;97266.78;;;12.20;66.71
48800;BME280;34611;47.964;7.982;2023-05-03T11:34:53;97259.78;;;12.20;66.69
48800;BME280;34611;47.964;7.982;2023-05-03T11:42:00;97261.56;;;12.20;66.64
48800;BME280;34611;47.964;7.982;2023-05-03T11:49:01;97256.34;;;12.20;66.67
48800;BME280;34611;47.964;7.982;2023-05-03T11:56:02;97254.69;;;12.19;66.61
48800;BME280;34611;47.964;7.982;2023-05-03T12:03:02;97259.88;;;12.19;66.69
48800;BME280;34611;47.964;7.982;2023-05-03T12:10:12;97260.75;;;12.19;66.56
48800;BME280;34611;47.964;7.982;2023-05-03T12:17:13;97236.44;;;12.19;66.63
48800;BME280;34611;47.964;7.982;2023-05-03T12:24:14;97244.94;;;12.21;66.56
48800;BME280;34611;47.964;7.982;2023-05-03T12:31:16;97237.13;;;12.21;66.49
48800;BME280;34611;47.964;7.982;2023-05-03T12:38:16;97232.06;;;12.19;66.66
48800;BME280;34611;47.964;7.982;2023-05-03T12:45:17;97236.44;;;12.19;66.52
48800;BME280;34611;47.964;7.982;2023-05-03T12:52:17;97226.00;;;12.19;66.65
48800;BME280;34611;47.964;7.982;2023-05-03T12:59:17;97219.84;;;12.20;66.71
48800;BME280;34611;47.964;7.982;2023-05-03T13:06:17;97199.81;;;12.20;66.61
48800;BME280;34611;47.964;7.982;2023-05-03T13:13:18;97195.59;;;12.19;66.68
48800;BME280;34611;47.964;7.982;2023-05-03T13:20:18;97195.44;;;12.21;66.71
48800;BME280;34611;47.964;7.982;2023-05-03T13:27:19;97180.75;;;12.20;66.50
48800;BME280;34611;47.964;7.982;2023-05-03T13:34:19;97167.72;;;12.20;66.67
48800;BME280;34611;47.964;7.982;2023-05-03T13:41:20;97157.31;;;12.20;66.62
48800;BME280;34611;47.964;7.982;2023-05-03T13:48:21;97148.66;;;12.19;66.74
48800;BME280;34611;47.964;7.982;2023-05-03T13:55:22;97152.91;;;12.20;66.72
48800;BME280;34611;47.964;7.982;2023-05-03T14:02:25;97139.06;;;12.20;66.62
48800;BME280;34611;47.964;7.982;2023-05-03T14:09:26;97137.41;;;12.19;66.60
48800;BME280;34611;47.964;7.982;2023-05-03T14:16:26;97134.66;;;12.20;66.58
48800;BME280;34611;47.964;7.982;2023-05-03T14:23:26;97120.81;;;12.20;66.47
48800;BME280;34611;47.964;7.982;2023-05-03T14:30:27;97130.44;;;12.19;66.66
48800;BME280;34611;47.964;7.982;2023-05-03T14:37:27;97119.84;;;12.21;66.51
48800;BME280;34611;47.964;7.982;2023-05-03T14:44:27;97112.19;;;12.19;66.76
48800;BME280;34611;47.964;7.982;2023-05-03T14:51:27;97109.56;;;12.19;66.69
48800;BME280;34611;47.964;7.982;2023-05-03T14:58:28;97113.00;;;12.20;66.73
48800;BME280;34611;47.964;7.982;2023-05-03T15:05:28;97109.41;;;12.21;66.68
48800;BME280;34611;47.964;7.982;2023-05-03T15:12:29;97119.03;;;12.20;66.66
48800;BME280;34611;47.964;7.982;2023-05-03T15:19:29;97105.19;;;12.20;66.74
48800;BME280;34611;47.964;7.982;2023-05-03T15:26:29;97108.59;;;12.20;66.52
48800;BME280;34611;47.964;7.982;2023-05-03T15:33:31;97114.78;;;12.19;66.88
48800;BME280;34611;47.964;7.982;2023-05-03T15:40:37;97115.59;;;12.20;66.63
48800;BME280;34611;47.964;7.982;2023-05-03T15:47:38;97118.22;;;12.20;66.58
48800;BME280;34611;47.964;7.982;2023-05-03T15:54:38;97118.22;;;12.20;66.90
48800;BME280;34611;47.964;7.982;2023-05-03T16:01:38;97119.84;;;12.21;66.63
48800;BME280;34611;47.964;7.982;2023-05-03T16:08:38;97116.31;;;12.22;66.68
48800;BME280;34611;47.964;7.982;2023-05-03T16:15:39;97118.09;;;12.21;66.66
48800;BME280;34611;47.964;7.982;2023-05-03T16:22:39;97115.59;;;12.20;66.68
48800;BME280;34611;47.964;7.982;2023-05-03T16:29:40;97122.91;;;12.26;66.48
48800;BME280;34611;47.964;7.982;2023-05-03T16:36:40;97105.59;;;12.25;66.51
48800;BME280;34611;47.964;7.982;2023-05-03T16:43:44;97104.78;;;12.24;66.64
48800;BME280;34611;47.964;7.982;2023-05-03T16:50:44;97108.19;;;12.25;66.62
48800;BME280;34611;47.964;7.982;2023-05-03T16:57:44;97105.59;;;12.25;66.62
48800;BME280;34611;47.964;7.982;2023-05-03T17:04:45;97107.25;;;12.26;66.73
48800;BME280;34611;47.964;7.982;2023-05-03T17:11:45;97104.66;;;12.26;66.76
48800;BME280;34611;47.964;7.982;2023-05-03T17:18:46;97107.25;;;12.26;66.65
48800;BME280;34611;47.964;7.982;2023-05-03T17:25:46;97107.38;;;12.24;66.67
48800;BME280;34611;47.964;7.982;2023-05-03T17:32:47;97115.19;;;12.24;66.72
48800;BME280;34611;47.964;7.982;2023-05-03T17:39:47;97126.44;;;12.25;66.82
48800;BME280;34611;47.964;7.982;2023-05-03T17:46:48;97133.31;;;12.26;66.94
48800;BME280;34611;47.964;7.982;2023-05-03T17:53:48;97129.75;;;12.27;66.76
48800;BME280;34611;47.964;7.982;2023-05-03T18:00:48;97131.66;;;12.25;66.88
48800;BME280;34611;47.964;7.982;2023-05-03T18:07:48;97147.28;;;12.25;67.00
48800;BME280;34611;47.964;7.982;2023-05-03T18:14:49;97147.19;;;12.26;66.84
48800;BME280;34611;47.964;7.982;2023-05-03T18:21:49;97156.66;;;12.27;66.78
48800;BME280;34611;47.964;7.982;2023-05-03T18:28:50;97161.88;;;12.27;67.00
48800;BME280;34611;47.964;7.982;2023-05-03T18:35:51;97156.78;;;12.26;66.95
48800;BME280;34611;47.964;7.982;2023-05-03T18:42:51;97161.19;;;12.25;66.95
48800;BME280;34611;47.964;7.982;2023-05-03T18:49:51;97168.03;;;12.26;66.77
48800;BME280;34611;47.964;7.982;2023-05-03T18:56:51;97166.41;;;12.35;66.90
48800;BME280;34611;47.964;7.982;2023-05-03T19:03:52;97173.94;;;12.28;66.85
48800;BME280;34611;47.964;7.982;2023-05-03T19:10:52;97182.72;;;12.27;67.01
48800;BME280;34611;47.964;7.982;2023-05-03T19:17:53;97182.72;;;12.27;66.97
48800;BME280;34611;47.964;7.982;2023-05-03T19:24:53;97187.09;;;12.27;66.86
48800;BME280;34611;47.964;7.982;2023-05-03T19:31:53;97190.53;;;12.27;66.80
48800;BME280;34611;47.964;7.982;2023-05-03T19:38:53;97193.16;;;12.27;67.09
48800;BME280;34611;47.964;7.982;2023-05-03T19:45:54;97196.19;;;12.32;66.83
48800;BME280;34611;47.964;7.982;2023-05-03T19:52:54;97205.22;;;12.28;67.11
48800;BME280;34611;47.964;7.982;2023-05-03T19:59:54;97206.19;;;12.27;67.06
48800;BME280;34611;47.964;7.982;2023-05-03T20:06:55;97216.63;;;12.27;66.95
48800;BME280;34611;47.964;7.982;2023-05-03T20:13:56;97202.72;;;12.27;67.01
48800;BME280;34611;47.964;7.982;2023-05-03T20:20:56;97213.16;;;12.27;66.95
48800;BME280;34611;47.964;7.982;2023-05-03T20:27:56;97209.59;;;12.28;66.95
48800;BME280;34611;47.964;7.982;2023-05-03T20:34:59;97207.13;;;12.26;66.84
48800;BME280;34611;47.964;7.982;2023-05-03T20:41:59;97200.13;;;12.27;66.89
48800;BME280;34611;47.964;7.982;2023-05-03T20:49:00;97201.91;;;12.26;66.92
48800;BME280;34611;47.964;7.982;2023-05-03T20:56:01;97195.88;;;12.26;66.88
48800;BME280;34611;47.964;7.982;2023-05-03T21:03:05;97196.69;;;12.26;67.06
48800;BME280;34611;47.964;7.982;2023-05-03T21:10:05;97193.28;;;12.26;66.87
48800;BME280;34611;47.964;7.982;2023-05-03T21:17:06;97197.50;;;12.27;66.96
48800;BME280;34611;47.964;7.982;2023-05-03T21:24:07;97188.06;;;12.26;66.95
48800;BME280;34611;47.964;7.982;2023-05-03T21:31:08;97183.66;;;12.26;66.94
48800;BME280;34611;47.964;7.982;2023-05-03T21:38:08;97182.72;;;12.27;66.92
48800;BME280;34611;47.964;7.982;2023-05-03T21:45:09;97179.28;;;12.27;66.82
48800;BME280;34611;47.964;7.982;2023-05-03T21:52:09;97169.81;;;12.26;66.87
48800;BME280;34611;47.964;7.982;2023-05-03T21:59:10;97164.59;;;12.26;66.98
48800;BME280;34611;47.964;7.982;2023-05-03T22:06:10;97171.44;;;12.27;66.98
48800;BME280;34611;47.964;7.982;2023-05-03T22:13:10;97155.81;;;12.27;66.81
48800;BME280;34611;47.964;7.982;2023-05-03T22:20:11;97149.91;;;12.25;66.74
48800;BME280;34611;47.964;7.982;2023-05-03T22:27:11;97155.81;;;12.27;66.92
48800;BME280;34611;47.964;7.982;2023-05-03T22:34:12;97137.72;;;12.25;67.00
48800;BME280;34611;47.964;7.982;2023-05-03T22:41:12;97138.53;;;12.26;66.85
48800;BME280;34611;47.964;7.982;2023-05-03T22:48:12;97136.88;;;12.25;66.96
48800;BME280;34611;47.964;7.982;2023-05-03T22:55:12;97148.97;;;12.26;66.81
48800;BME280;34611;47.964;7.982;2023-05-03T23:02:13;97143.75;;;12.26;66.75
48800;BME280;34611;47.964;7.982;2023-05-03T23:09:13;97141.16;;;12.26;67.00
48800;BME280;34611;47.964;7.982;2023-05-03T23:16:14;97148.84;;;12.27;66.97
48800;BME280;34611;47.964;7.982;2023-05-03T23:23:14;97138.53;;;12.26;67.03
48800;BME280;34611;47.964;7.982;2023-05-03T23:30:15;97141.16;;;12.26;66.83
48800;BME280;34611;47.964;7.982;2023-05-03T23:37:15;97134.97;;;12.27;66.77
48800;BME280;34611;47.964;7.982;2023-05-03T23:44:15;97129.06;;;12.25;66.82
48800;BME280;34611;47.964;7.982;2023-05-03T23:51:16;97128.09;;;12.26;66.97
48800;BME280;34611;47.964;7.982;2023-05-03T23:58:16;97117.69;;;12.26;66.88
